createdAt,value
2023-07-03T00:02:22.409Z,14.95
2023-07-03T00:04:49.846Z,13.70
2023-07-03T00:07:16.775Z,14.80
2023-07-03T00:09:44.240Z,14.98
2023-07-03T00:12:12.241Z,15.23
2023-07-03T00:14:39.884Z,12.75
2023-07-03T00:17:10.912Z,17.35
2023-07-03T00:19:37.710Z,14.07
2023-07-03T00:22:05.039Z,15.90
2023-07-03T00:24:32.769Z,14.75
2023-07-03T00:27:00.231Z,17.38
2023-07-03T00:29:31.453Z,14.70
2023-07-03T00:31:59.451Z,14.63
2023-07-03T00:34:26.962Z,16.70
2023-07-03T00:36:54.882Z,14.10
2023-07-03T00:39:22.030Z,16.10
2023-07-03T00:41:48.763Z,15.80
2023-07-03T00:44:18.850Z,15.85
2023-07-03T00:46:49.830Z,17.20
2023-07-03T00:49:18.515Z,15.38
2023-07-03T00:51:52.709Z,15.27
2023-07-03T00:54:19.671Z,19.30
2023-07-03T00:56:46.508Z,15.95
2023-07-03T00:59:14.102Z,21.58
2023-07-03T01:02:12.355Z,14.45
2023-07-03T01:04:47.582Z,16.90
2023-07-03T01:07:17.538Z,17.67
2023-07-03T01:09:54.874Z,17.20
2023-07-03T01:12:24.910Z,15.68
2023-07-03T01:14:52.978Z,15.98
2023-07-03T01:17:20.570Z,15.93
2023-07-03T01:19:49.518Z,18.02
2023-07-03T01:22:43.584Z,13.98
2023-07-03T01:25:15.432Z,18.08
2023-07-03T01:27:45.215Z,18.35
2023-07-03T01:30:19.495Z,15.82
2023-07-03T01:32:49.418Z,19.15
2023-07-03T01:35:17.750Z,21.65
2023-07-03T01:37:48.369Z,18.10
2023-07-03T01:40:18.455Z,18.40
2023-07-03T01:42:47.009Z,18.48
2023-07-03T01:45:14.488Z,17.15
2023-07-03T01:47:41.452Z,18.02
2023-07-03T01:50:13.541Z,19.88
2023-07-03T01:52:52.471Z,17.13
2023-07-03T01:55:25.941Z,17.77
2023-07-03T01:58:04.935Z,17.88
2023-07-03T02:00:49.752Z,18.23
2023-07-03T02:03:41.464Z,16.88
2023-07-03T02:06:25.698Z,16.10
2023-07-03T02:08:53.805Z,17.50
2023-07-03T02:11:23.583Z,15.63
2023-07-03T02:13:50.858Z,17.73
2023-07-03T02:16:17.794Z,18.00
2023-07-03T02:18:45.091Z,17.08
2023-07-03T02:21:13.974Z,17.45
2023-07-03T02:23:41.654Z,17.75
2023-07-03T02:26:08.800Z,19.35
2023-07-03T02:28:35.806Z,18.20
2023-07-03T02:31:03.540Z,19.73
2023-07-03T02:33:30.711Z,17.92
2023-07-03T02:35:57.595Z,17.25
2023-07-03T02:38:24.377Z,18.10
2023-07-03T02:40:51.194Z,18.38
2023-07-03T02:43:17.993Z,18.50
2023-07-03T02:45:44.800Z,19.65
2023-07-03T02:48:12.393Z,19.33
2023-07-03T02:50:39.221Z,20.50
2023-07-03T02:53:06.083Z,22.27
2023-07-03T02:55:32.896Z,18.92
2023-07-03T02:57:59.648Z,18.92
2023-07-03T03:00:28.993Z,20.65
2023-07-03T03:02:55.999Z,19.25
2023-07-03T03:05:22.791Z,21.20
2023-07-03T03:07:49.571Z,19.33
2023-07-03T03:10:16.355Z,17.67
2023-07-03T03:12:43.193Z,17.77
2023-07-03T03:15:10.174Z,17.27
2023-07-03T03:17:36.986Z,16.42
2023-07-03T03:20:04.486Z,17.95
2023-07-03T03:22:31.236Z,17.90
2023-07-03T03:24:58.013Z,18.90
2023-07-03T03:27:24.792Z,18.95
2023-07-03T03:29:51.904Z,16.67
2023-07-03T03:32:18.957Z,19.92
2023-07-03T03:34:45.972Z,20.55
2023-07-03T03:37:12.774Z,20.20
2023-07-03T03:39:39.545Z,18.58
2023-07-03T03:42:06.584Z,18.88
2023-07-03T03:44:33.376Z,17.40
2023-07-03T03:47:00.117Z,17.50
2023-07-03T03:49:26.900Z,19.85
2023-07-03T03:51:53.861Z,17.20
2023-07-03T03:54:21.103Z,17.52
2023-07-03T03:56:48.201Z,20.45
2023-07-03T03:59:15.139Z,17.15
2023-07-03T04:01:43.483Z,16.27
2023-07-03T04:04:10.500Z,19.85
2023-07-03T04:06:39.141Z,22.83
2023-07-03T04:09:06.310Z,25.35
2023-07-03T04:11:33.229Z,24.23
2023-07-03T04:14:00.518Z,21.80
2023-07-03T04:16:29.755Z,23.08
2023-07-03T04:18:56.632Z,25.67
2023-07-03T04:21:23.539Z,22.35
2023-07-03T04:23:50.459Z,29.35
2023-07-03T04:26:17.226Z,25.52
2023-07-03T04:28:44.052Z,20.90
2023-07-03T04:31:10.988Z,23.52
2023-07-03T04:33:37.785Z,24.42
2023-07-03T04:36:04.786Z,20.60
2023-07-03T04:38:31.612Z,24.63
2023-07-03T04:40:58.397Z,25.27
2023-07-03T04:43:25.398Z,27.25
2023-07-03T04:45:54.524Z,27.38
2023-07-03T04:48:21.992Z,22.38
2023-07-03T04:50:50.447Z,26.88
2023-07-03T04:53:22.090Z,25.27
2023-07-03T04:55:49.933Z,24.77
2023-07-03T04:58:17.169Z,28.20
2023-07-03T05:00:43.981Z,25.15
2023-07-03T05:03:11.381Z,25.92
2023-07-03T05:05:38.393Z,27.55
2023-07-03T05:08:05.631Z,24.40
2023-07-03T05:10:32.440Z,26.60
2023-07-03T05:12:59.233Z,22.92
2023-07-03T05:15:26.573Z,22.65
2023-07-03T05:17:56.360Z,21.00
2023-07-03T05:20:23.825Z,25.55
2023-07-03T05:22:51.093Z,23.13
2023-07-03T05:25:18.332Z,21.98
2023-07-03T05:27:47.480Z,23.15
2023-07-03T05:30:14.743Z,21.42
2023-07-03T05:32:42.050Z,26.27
2023-07-03T05:35:09.911Z,21.13
2023-07-03T05:37:39.419Z,23.58
2023-07-03T05:40:08.374Z,21.87
2023-07-03T05:42:36.568Z,19.92
2023-07-03T05:45:04.306Z,21.90
2023-07-03T05:47:31.233Z,19.63
2023-07-03T05:49:58.779Z,22.38
2023-07-03T05:52:26.328Z,20.77
2023-07-03T05:54:53.631Z,23.90
2023-07-03T05:57:21.658Z,19.10
2023-07-03T05:59:49.697Z,21.25
2023-07-03T06:02:17.167Z,23.13
2023-07-03T06:04:44.315Z,21.35
2023-07-03T06:07:11.450Z,22.60
2023-07-03T06:09:38.856Z,20.58
2023-07-03T06:12:06.248Z,19.73
2023-07-03T06:14:34.758Z,47.30
2023-07-03T06:17:01.743Z,27.20
2023-07-03T06:19:29.867Z,20.33
2023-07-03T06:21:57.490Z,20.85
2023-07-03T06:24:25.062Z,21.42
2023-07-03T06:26:52.833Z,20.70
2023-07-03T06:29:20.300Z,23.05
2023-07-03T06:31:48.585Z,19.60
2023-07-03T06:34:15.842Z,19.70
2023-07-03T06:36:42.901Z,18.15
2023-07-03T06:39:10.937Z,22.20
2023-07-03T06:41:37.967Z,20.25
2023-07-03T06:44:07.122Z,22.75
2023-07-03T06:46:34.706Z,22.02
2023-07-03T06:49:01.828Z,21.20
2023-07-03T06:51:28.904Z,23.40
2023-07-03T06:53:55.973Z,21.17
2023-07-03T06:56:24.005Z,26.17
2023-07-03T06:58:51.867Z,20.58
2023-07-03T07:01:21.785Z,22.92
2023-07-03T07:03:49.083Z,21.73
2023-07-03T07:06:25.310Z,21.45
2023-07-03T07:08:52.484Z,18.80
2023-07-03T07:11:31.801Z,23.00
2023-07-03T07:14:00.289Z,18.87
2023-07-03T07:16:36.086Z,19.60
2023-07-03T07:19:06.482Z,17.92
2023-07-03T07:21:37.105Z,23.33
2023-07-03T07:24:19.790Z,22.13
2023-07-03T07:26:47.914Z,25.65
2023-07-03T07:29:15.070Z,19.52
2023-07-03T07:31:42.545Z,19.73
2023-07-03T07:34:11.615Z,21.60
2023-07-03T07:36:39.888Z,18.35
2023-07-03T07:39:08.090Z,18.17
2023-07-03T07:41:34.937Z,16.00
2023-07-03T07:44:01.796Z,20.13
2023-07-03T07:46:33.305Z,19.10
2023-07-03T07:49:01.489Z,19.75
2023-07-03T07:51:29.291Z,20.45
2023-07-03T07:53:57.816Z,21.23
2023-07-03T07:56:25.534Z,15.55
2023-07-03T07:58:53.232Z,17.92
2023-07-03T08:01:20.901Z,18.38
2023-07-03T08:03:47.903Z,16.65
2023-07-03T08:06:15.454Z,16.05
2023-07-03T08:08:42.347Z,15.52
2023-07-03T08:11:10.420Z,15.77
2023-07-03T08:13:39.885Z,14.95
2023-07-03T08:16:07.221Z,12.90
2023-07-03T08:18:34.021Z,17.55
2023-07-03T08:21:00.794Z,14.35
2023-07-03T08:23:27.994Z,19.83
2023-07-03T08:25:56.126Z,13.65
2023-07-03T08:28:23.687Z,15.05
2023-07-03T08:30:50.786Z,12.52
2023-07-03T08:33:17.774Z,13.48
2023-07-03T08:40:43.405Z,15.55
2023-07-03T08:43:17.617Z,14.52
2023-07-03T08:45:47.636Z,14.95
2023-07-03T08:50:56.307Z,17.38
2023-07-03T08:53:46.533Z,14.88
2023-07-03T08:58:43.383Z,16.48
2023-07-03T09:01:49.084Z,13.15
2023-07-03T09:04:49.639Z,12.02
2023-07-03T09:07:59.790Z,13.95
2023-07-03T09:10:34.593Z,13.27
2023-07-03T09:13:13.293Z,10.45
2023-07-03T09:15:45.837Z,13.23
2023-07-03T09:18:16.117Z,10.88
2023-07-03T09:20:43.945Z,11.02
2023-07-03T09:23:27.752Z,10.70
2023-07-03T09:26:04.181Z,11.10
2023-07-03T09:28:35.989Z,14.63
2023-07-03T09:31:04.679Z,11.32
2023-07-03T09:33:32.183Z,13.88
2023-07-03T09:36:04.175Z,11.57
2023-07-03T09:38:30.995Z,10.23
2023-07-03T09:41:04.906Z,11.77
2023-07-03T09:43:32.121Z,14.00
2023-07-03T09:46:10.670Z,12.75
2023-07-03T09:48:37.745Z,10.95
2023-07-03T09:51:27.197Z,12.35
2023-07-03T09:53:57.613Z,13.35
2023-07-03T09:56:29.137Z,11.00
2023-07-03T09:59:04.695Z,11.65
2023-07-03T10:06:59.013Z,10.63
2023-07-03T10:12:26.934Z,11.82
2023-07-03T10:14:59.784Z,11.18
2023-07-03T10:17:37.960Z,16.15
2023-07-03T10:20:11.052Z,10.77
2023-07-03T10:22:44.462Z,13.48
2023-07-03T10:25:24.171Z,8.90
2023-07-03T10:27:55.798Z,12.73
2023-07-03T10:30:24.823Z,10.93
2023-07-03T10:32:54.748Z,13.45
2023-07-03T10:35:31.808Z,12.57
2023-07-03T10:38:17.359Z,11.05
2023-07-03T10:40:56.687Z,11.82
2023-07-03T10:43:26.434Z,12.05
2023-07-03T10:45:54.330Z,12.35
2023-07-03T10:48:25.514Z,12.48
2023-07-03T10:51:32.677Z,10.85
2023-07-03T10:54:08.176Z,13.27
2023-07-03T10:56:51.671Z,10.85
2023-07-03T10:59:28.100Z,14.48
2023-07-03T11:02:13.637Z,12.57
2023-07-03T11:04:53.860Z,10.50
2023-07-03T11:09:54.012Z,16.60
2023-07-03T11:12:43.740Z,15.35
2023-07-03T11:15:33.733Z,12.90
2023-07-03T11:24:13.601Z,13.20
2023-07-03T11:29:13.293Z,10.88
2023-07-03T11:31:43.802Z,13.20
2023-07-03T11:36:56.839Z,13.85
2023-07-03T11:44:46.953Z,12.23
2023-07-03T11:47:26.422Z,12.80
2023-07-03T11:49:58.653Z,12.68
2023-07-03T11:52:32.005Z,13.98
2023-07-03T11:55:11.644Z,12.25
2023-07-03T11:57:41.693Z,12.98
2023-07-03T12:00:28.317Z,12.68
2023-07-03T12:02:59.189Z,11.80
2023-07-03T12:05:44.967Z,13.85
2023-07-03T12:08:24.161Z,19.08
2023-07-03T12:10:50.941Z,12.98
2023-07-03T12:13:51.475Z,12.23
2023-07-03T12:16:29.655Z,13.45
2023-07-03T12:18:59.433Z,13.45
2023-07-03T12:21:33.866Z,11.95
2023-07-03T12:24:00.645Z,12.82
2023-07-03T12:26:27.820Z,12.82
2023-07-03T12:29:07.682Z,10.15
2023-07-03T12:31:34.478Z,14.35
2023-07-03T12:34:01.501Z,11.15
2023-07-03T12:36:38.694Z,11.05
2023-07-03T12:39:15.831Z,13.95
2023-07-03T12:41:42.834Z,13.65
2023-07-03T12:44:14.044Z,12.02
2023-07-03T12:46:43.424Z,10.60
2023-07-03T12:49:16.801Z,10.98
2023-07-03T12:51:55.270Z,12.10
2023-07-03T12:54:23.698Z,10.52
2023-07-03T12:56:53.080Z,11.95
2023-07-03T12:59:21.578Z,13.53
2023-07-03T13:01:53.389Z,11.80
2023-07-03T13:04:31.983Z,12.25
2023-07-03T13:06:59.904Z,9.77
2023-07-03T13:09:28.560Z,15.07
2023-07-03T13:11:55.612Z,14.60
2023-07-03T13:14:26.072Z,13.30
2023-07-03T13:16:59.682Z,10.25
2023-07-03T13:19:34.442Z,14.50
2023-07-03T13:22:10.964Z,11.30
2023-07-03T13:24:49.362Z,12.00
2023-07-03T13:27:26.358Z,10.57
2023-07-03T13:29:58.995Z,8.50
2023-07-03T13:32:26.632Z,9.63
2023-07-03T13:35:01.633Z,11.50
2023-07-03T13:37:32.656Z,11.55
2023-07-03T13:40:01.850Z,11.35
2023-07-03T13:42:31.322Z,12.57
2023-07-03T13:44:58.785Z,12.88
2023-07-03T13:47:28.511Z,10.60
2023-07-03T13:52:22.753Z,13.18
2023-07-03T13:54:49.512Z,10.20
2023-07-03T13:57:16.328Z,15.75
2023-07-03T13:59:43.188Z,12.27
2023-07-03T14:02:10.039Z,18.80
2023-07-03T14:04:36.984Z,12.00
2023-07-03T14:07:04.019Z,12.65
2023-07-03T14:09:30.840Z,12.73
2023-07-03T14:11:57.651Z,9.40
2023-07-03T14:14:24.445Z,11.65
2023-07-03T14:16:52.864Z,9.35
2023-07-03T14:19:19.736Z,10.98
2023-07-03T14:21:46.637Z,8.02
2023-07-03T14:24:13.410Z,12.70
2023-07-03T14:26:40.395Z,8.57
2023-07-03T14:29:07.748Z,11.02
2023-07-03T14:31:34.753Z,9.80
2023-07-03T14:34:01.633Z,10.70
2023-07-03T14:36:28.575Z,10.18
2023-07-03T14:38:56.296Z,9.80
2023-07-03T14:41:23.363Z,11.48
2023-07-03T14:43:50.516Z,11.73
2023-07-03T14:46:17.334Z,14.82
2023-07-03T14:48:44.227Z,12.60
2023-07-03T14:51:11.118Z,14.77
2023-07-03T14:53:38.275Z,11.25
2023-07-03T14:56:05.875Z,11.88
2023-07-03T14:58:32.799Z,11.02
2023-07-03T15:01:03.881Z,14.35
2023-07-03T15:03:31.649Z,13.70
2023-07-03T15:05:58.859Z,11.70
2023-07-03T15:08:27.117Z,14.13
2023-07-03T15:10:54.107Z,14.77
2023-07-03T15:13:20.942Z,15.57
2023-07-03T15:15:51.392Z,13.75
2023-07-03T15:18:18.508Z,11.73
2023-07-03T15:20:47.094Z,10.80
2023-07-03T15:23:16.127Z,12.18
2023-07-03T15:25:43.120Z,15.77
2023-07-03T15:28:09.969Z,15.60
2023-07-03T15:30:40.324Z,14.93
2023-07-03T15:33:07.682Z,18.15
2023-07-03T15:35:34.714Z,13.35
2023-07-03T15:38:01.953Z,11.15
2023-07-03T15:40:28.780Z,11.90
2023-07-03T15:42:55.556Z,12.18
2023-07-03T15:45:23.415Z,13.00
2023-07-03T15:47:50.745Z,12.25
2023-07-03T15:50:17.686Z,11.18
2023-07-03T15:52:44.494Z,15.25
2023-07-03T15:55:11.259Z,11.45
2023-07-03T15:57:38.065Z,11.27
2023-07-03T16:00:05.276Z,11.70
2023-07-03T16:02:32.312Z,12.40
2023-07-03T16:04:59.170Z,12.50
2023-07-03T16:07:26.422Z,12.73
2023-07-03T16:09:53.210Z,11.93
2023-07-03T16:12:20.003Z,14.00
2023-07-03T16:14:48.794Z,12.40
2023-07-03T16:17:15.893Z,12.52
2023-07-03T16:20:03.857Z,11.18
2023-07-03T16:22:30.988Z,14.18
2023-07-03T16:24:57.820Z,12.23
2023-07-03T16:27:24.634Z,35.83
2023-07-03T16:29:51.397Z,15.40
2023-07-03T16:32:18.638Z,12.20
2023-07-03T16:34:47.285Z,10.50
2023-07-03T16:37:14.415Z,14.57
2023-07-03T16:39:41.222Z,14.27
2023-07-03T16:42:08.174Z,12.05
2023-07-03T16:44:34.969Z,13.75
2023-07-03T16:47:01.794Z,11.15
2023-07-03T16:49:28.579Z,11.68
2023-07-03T16:51:55.387Z,9.77
2023-07-03T16:54:22.203Z,11.90
2023-07-03T16:56:51.186Z,11.07
2023-07-03T16:59:17.950Z,11.77
2023-07-03T17:01:44.870Z,13.90
2023-07-03T17:04:11.691Z,18.70
2023-07-03T17:06:38.607Z,13.82
2023-07-03T17:09:05.815Z,16.17
2023-07-03T17:11:32.667Z,13.65
2023-07-03T17:14:00.796Z,14.23
2023-07-03T17:16:28.525Z,14.02
2023-07-03T17:18:55.558Z,14.60
2023-07-03T17:21:22.382Z,11.25
2023-07-03T17:23:56.723Z,13.57
2023-07-03T17:26:23.497Z,12.73
2023-07-03T17:28:50.311Z,16.98
2023-07-03T17:31:24.665Z,12.45
2023-07-03T17:33:55.533Z,14.50
2023-07-03T17:36:24.179Z,13.23
2023-07-03T17:38:51.918Z,12.80
2023-07-03T17:41:20.406Z,12.18
2023-07-03T17:43:47.868Z,19.42
2023-07-03T17:46:15.874Z,13.52
2023-07-03T17:48:42.960Z,11.38
2023-07-03T17:51:09.774Z,12.43
2023-07-03T17:53:36.646Z,12.95
2023-07-03T17:56:03.523Z,14.20
2023-07-03T17:58:30.354Z,15.48
2023-07-03T18:01:02.292Z,17.30
2023-07-03T18:03:30.246Z,14.38
2023-07-03T18:05:57.982Z,36.92
2023-07-03T18:08:25.224Z,14.70
2023-07-03T18:10:52.022Z,13.20
2023-07-03T18:13:19.097Z,14.50
2023-07-03T18:15:49.714Z,10.95
2023-07-03T18:18:17.469Z,11.77
2023-07-03T18:20:45.646Z,10.52
2023-07-03T18:23:12.733Z,11.18
2023-07-03T18:25:40.382Z,10.82
2023-07-03T18:28:07.843Z,9.90
2023-07-03T18:30:34.737Z,10.23
2023-07-03T18:33:01.897Z,11.65
2023-07-03T18:35:28.763Z,10.25
2023-07-03T18:37:55.549Z,11.93
2023-07-03T18:40:22.327Z,13.68
2023-07-03T18:42:49.117Z,13.05
2023-07-03T18:45:15.929Z,8.82
2023-07-03T18:47:43.274Z,10.90
2023-07-03T18:50:10.580Z,9.88
2023-07-03T18:52:37.430Z,11.65
2023-07-03T18:55:04.422Z,9.80
2023-07-03T18:57:32.956Z,11.27
2023-07-03T19:00:00.467Z,10.00
2023-07-03T19:02:27.863Z,9.70
2023-07-03T19:04:54.765Z,9.65
2023-07-03T19:07:21.542Z,9.95
2023-07-03T19:09:48.297Z,11.35
2023-07-03T19:12:18.312Z,13.05
2023-07-03T19:14:45.202Z,10.85
2023-07-03T19:17:12.125Z,12.88
2023-07-03T19:19:39.207Z,13.57
2023-07-03T19:22:06.819Z,12.68
2023-07-03T19:24:33.778Z,13.40
2023-07-03T19:27:00.592Z,10.05
2023-07-03T19:29:27.373Z,8.57
2023-07-03T19:31:54.358Z,8.75
2023-07-03T19:34:21.136Z,9.10
2023-07-03T19:36:47.896Z,9.43
2023-07-03T19:39:14.835Z,8.85
2023-07-03T19:41:44.167Z,9.95
2023-07-03T19:44:10.953Z,9.77
2023-07-03T19:46:38.075Z,9.38
2023-07-03T19:49:04.910Z,11.50
2023-07-03T19:51:31.717Z,12.45
2023-07-03T19:53:59.877Z,9.52
2023-07-03T19:56:26.856Z,11.10
2023-07-03T19:58:55.481Z,9.43
2023-07-03T20:01:22.468Z,11.68
2023-07-03T20:03:49.952Z,10.98
2023-07-03T20:06:22.535Z,13.90
2023-07-03T20:08:51.498Z,12.15
2023-07-03T20:11:19.008Z,12.07
2023-07-03T20:13:48.667Z,13.80
2023-07-03T20:16:15.641Z,13.13
2023-07-03T20:18:45.111Z,15.23
2023-07-03T20:21:12.007Z,11.60
2023-07-03T20:23:38.949Z,11.18
2023-07-03T20:26:05.952Z,11.30
2023-07-03T20:28:33.029Z,10.32
2023-07-03T20:31:00.265Z,11.07
2023-07-03T20:33:27.123Z,9.30
2023-07-03T20:35:59.900Z,9.85
2023-07-03T20:38:26.709Z,10.48
2023-07-03T20:41:01.287Z,9.70
2023-07-03T20:43:28.322Z,11.20
2023-07-03T20:45:57.818Z,10.30
2023-07-03T20:48:26.307Z,11.83
2023-07-03T20:50:55.503Z,13.68
2023-07-03T20:53:41.354Z,12.25
2023-07-03T20:56:09.421Z,10.27
2023-07-03T20:58:41.546Z,11.38
2023-07-03T21:01:15.248Z,11.30
2023-07-03T21:03:45.193Z,10.10
2023-07-03T21:06:13.357Z,11.57
2023-07-03T21:08:41.265Z,10.57
2023-07-03T21:11:12.552Z,10.27
2023-07-03T21:13:44.107Z,12.98
2023-07-03T21:16:13.198Z,13.93
2023-07-03T21:18:41.099Z,11.80
2023-07-03T21:21:15.642Z,12.73
2023-07-03T21:23:43.378Z,11.50
2023-07-03T21:26:11.632Z,11.27
2023-07-03T21:28:39.412Z,10.25
2023-07-03T21:31:07.084Z,9.68
2023-07-03T21:33:34.807Z,12.43
2023-07-03T21:36:11.750Z,12.55
2023-07-03T21:38:42.645Z,11.35
2023-07-03T21:41:11.671Z,13.25
2023-07-03T21:43:38.422Z,13.68
2023-07-03T21:46:13.191Z,13.57
2023-07-03T21:48:42.529Z,11.15
2023-07-03T21:51:12.424Z,11.60
2023-07-03T21:53:40.807Z,10.45
2023-07-03T21:56:12.989Z,11.10
2023-07-03T21:58:41.371Z,13.20
2023-07-03T22:01:21.432Z,10.63
2023-07-03T22:03:48.581Z,11.93
2023-07-03T22:06:15.409Z,11.10
2023-07-03T22:08:42.229Z,15.43
2023-07-03T22:11:08.987Z,10.15
2023-07-03T22:13:36.305Z,10.32
2023-07-03T22:16:03.252Z,10.82
2023-07-03T22:18:30.334Z,10.27
2023-07-03T22:20:57.173Z,12.00
2023-07-03T22:23:31.320Z,11.82
2023-07-03T22:26:00.395Z,11.95
2023-07-03T22:28:27.821Z,11.15
2023-07-03T22:30:54.764Z,8.30
2023-07-03T22:33:22.388Z,9.52
2023-07-03T22:35:50.318Z,9.38
2023-07-03T22:38:17.270Z,9.88
2023-07-03T22:40:44.159Z,9.27
2023-07-03T22:43:10.999Z,9.30
2023-07-03T22:45:37.767Z,10.32
2023-07-03T22:48:04.951Z,11.00
2023-07-03T22:50:31.901Z,13.75
2023-07-03T22:52:58.763Z,12.82
2023-07-03T22:55:25.698Z,9.80
2023-07-03T22:57:52.648Z,9.63
2023-07-03T23:00:19.793Z,11.70
2023-07-03T23:02:46.693Z,10.80
2023-07-03T23:05:13.586Z,12.02
2023-07-03T23:07:40.576Z,9.85
2023-07-03T23:10:08.082Z,8.55
2023-07-03T23:12:35.081Z,12.35
2023-07-03T23:15:01.887Z,11.35
2023-07-03T23:17:30.990Z,11.07
2023-07-03T23:19:58.351Z,10.93
2023-07-03T23:22:26.194Z,11.48
2023-07-03T23:24:57.179Z,11.57
2023-07-03T23:27:24.777Z,11.35
2023-07-03T23:29:52.725Z,12.52
2023-07-03T23:32:20.419Z,9.00
2023-07-03T23:34:48.605Z,12.13
2023-07-03T23:37:17.890Z,10.50
2023-07-03T23:39:45.286Z,8.73
2023-07-03T23:42:13.892Z,8.05
2023-07-03T23:44:40.805Z,10.13
2023-07-03T23:47:07.964Z,8.75
2023-07-03T23:49:35.611Z,11.90
2023-07-03T23:52:05.328Z,9.68
2023-07-03T23:54:32.890Z,11.07
2023-07-03T23:56:59.747Z,10.70
2023-07-03T23:59:27.929Z,9.75
